Time;durP1;ratioP1;P1;durP2;ratioP2;P2;SDS_P1;SDS_P2;PMS_P1;PMS_P2;Temp;Humidity;BMP_temperature;BMP_pressure;BME280_temperature;BME280_humidity;BME280_pressure;Samples;Min_cycle;Max_cycle;Signal;HPM_P1;HPM_P2
2021/08/22 00:04:12;;;;;;;15.9;13.5;;;;;;;12.65;100;98902.59;;;;
2021/08/22 00:14:11;;;;;;;17.2;13.4;;;;;;;12.59;100;98888.42;;;;
2021/08/22 00:24:10;;;;;;;24.8;13.9;;;;;;;12.44;100;98889.64;;;;
2021/08/22 00:34:09;;;;;;;17.8;14.8;;;;;;;12.32;100;98886.7;;;;
2021/08/22 00:44:08;;;;;;;17.3;13;;;;;;;12.29;100;98884.63;;;;
2021/08/22 00:54:07;;;;;;;17.7;14.8;;;;;;;12.22;100;98878.1;;;;
2021/08/22 01:04:06;;;;;;;18.5;13.3;;;;;;;12.14;100;98882.35;;;;
2021/08/22 01:14:05;;;;;;;15.7;13.7;;;;;;;12.14;100;98862.64;;;;
2021/08/22 01:24:04;;;;;;;17.4;12.1;;;;;;;12.1;100;98863.27;;;;
2021/08/22 01:34:03;;;;;;;15.6;14;;;;;;;12.07;100;98871.98;;;;
2021/08/22 01:44:02;;;;;;;14.8;11.4;;;;;;;12.03;100;98864.8;;;;
2021/08/22 01:54:01;;;;;;;15.7;12.9;;;;;;;11.86;100;98868.2;;;;
2021/08/22 02:04:00;;;;;;;18.2;14.6;;;;;;;11.84;100;98866.91;;;;
2021/08/22 02:14:00;;;;;;;15.1;13.5;;;;;;;11.78;100;98862.74;;;;
2021/08/22 02:23:59;;;;;;;17.4;14.7;;;;;;;11.66;100;98860.59;;;;
2021/08/22 02:33:58;;;;;;;17.9;15;;;;;;;11.59;100;98866.39;;;;
2021/08/22 02:43:57;;;;;;;14;11.1;;;;;;;11.47;100;98862.66;;;;
2021/08/22 02:53:56;;;;;;;15.6;12.7;;;;;;;11.34;100;98852.72;;;;
2021/08/22 03:03:55;;;;;;;18.9;13.2;;;;;;;11.28;100;98854.72;;;;
2021/08/22 03:13:54;;;;;;;16.4;14.2;;;;;;;11.23;100;98841.37;;;;
2021/08/22 03:23:53;;;;;;;15.1;11.8;;;;;;;11.11;100;98838.39;;;;
2021/08/22 03:33:52;;;;;;;17;15.2;;;;;;;11.08;100;98842.5;;;;
2021/08/22 03:43:51;;;;;;;17.8;15;;;;;;;11.17;100;98839.09;;;;
2021/08/22 03:53:50;;;;;;;14.1;12.6;;;;;;;11.2;100;98839.28;;;;
2021/08/22 04:03:49;;;;;;;16.2;13.9;;;;;;;11.25;100;98835.64;;;;
2021/08/22 04:13:48;;;;;;;24.2;14.2;;;;;;;11.32;100;98834.13;;;;
2021/08/22 04:23:47;;;;;;;13.9;12.4;;;;;;;11.38;100;98837.52;;;;
2021/08/22 04:33:46;;;;;;;20.3;13.4;;;;;;;11.78;100;98843.84;;;;
2021/08/22 04:43:45;;;;;;;14.3;12.8;;;;;;;12.08;100;98846.55;;;;
2021/08/22 04:53:44;;;;;;;12.6;11.3;;;;;;;12.55;100;98855.01;;;;
2021/08/22 05:03:43;;;;;;;14.7;11.9;;;;;;;12.86;100;98853.02;;;;
2021/08/22 05:13:42;;;;;;;13.6;12.2;;;;;;;13.09;100;98849.09;;;;
2021/08/22 05:23:41;;;;;;;13.1;10.7;;;;;;;13.48;100;98853.56;;;;
2021/08/22 05:33:40;;;;;;;23.2;12.3;;;;;;;13.9;100;98853.82;;;;
2021/08/22 05:43:40;;;;;;;16.3;13.5;;;;;;;14.43;100;98845.23;;;;
2021/08/22 05:53:41;;;;;;;13.1;10.6;;;;;;;14.99;100;98844.72;;;;
2021/08/22 06:03:38;;;;;;;15.6;11.7;;;;;;;15.28;100;98843.88;;;;
2021/08/22 06:13:38;;;;;;;16;12.1;;;;;;;15.79;100;98836.44;;;;
2021/08/22 06:23:37;;;;;;;17;13.1;;;;;;;16.24;100;98839.14;;;;
2021/08/22 06:33:37;;;;;;;12.7;11.5;;;;;;;16.65;100;98828.08;;;;
2021/08/22 06:43:37;;;;;;;13.2;11.9;;;;;;;17.2;100;98829.34;;;;
2021/08/22 06:53:36;;;;;;;13.2;11.8;;;;;;;17.55;100;98830.36;;;;
2021/08/22 07:03:36;;;;;;;12.9;10.7;;;;;;;18.06;100;98823.97;;;;
2021/08/22 07:13:36;;;;;;;13.8;10.5;;;;;;;18.36;100;98831.74;;;;
2021/08/22 07:23:36;;;;;;;11.3;9.9;;;;;;;18.89;100;98836.53;;;;
2021/08/22 07:33:35;;;;;;;10.6;8.3;;;;;;;19.21;100;98839.98;;;;
2021/08/22 07:43:35;;;;;;;10.9;8.9;;;;;;;19.75;100;98839.92;;;;
2021/08/22 07:53:36;;;;;;;7.6;6.8;;;;;;;20.01;100;98831.84;;;;
2021/08/22 08:03:36;;;;;;;8.7;7.5;;;;;;;20.58;100;98850.03;;;;
2021/08/22 08:13:36;;;;;;;22.3;8.3;;;;;;;20.98;100;98840.47;;;;
2021/08/22 08:23:36;;;;;;;11;7.2;;;;;;;21.32;100;98839.39;;;;
2021/08/22 08:33:36;;;;;;;10.1;7.9;;;;;;;21.8;100;98836.81;;;;
2021/08/22 08:43:37;;;;;;;7.9;5.3;;;;;;;22.22;100;98831;;;;
2021/08/22 08:53:37;;;;;;;7.9;5.3;;;;;;;22.46;100;98833.17;;;;
2021/08/22 09:03:38;;;;;;;8.4;6.5;;;;;;;23.17;100;98830.95;;;;
2021/08/22 09:13:39;;;;;;;8.1;4.8;;;;;;;23.2;100;98813.67;;;;
2021/08/22 09:23:39;;;;;;;7.3;4.8;;;;;;;23.53;100;98807.97;;;;
2021/08/22 09:33:39;;;;;;;6.8;4.7;;;;;;;24.08;100;98830.52;;;;
2021/08/22 09:43:40;;;;;;;6.5;3.7;;;;;;;23.98;100;98821.05;;;;
2021/08/22 09:53:40;;;;;;;5.8;3.6;;;;;;;24.23;100;98820.32;;;;
2021/08/22 10:03:41;;;;;;;5.2;3.3;;;;;;;24.54;100;98814.82;;;;
2021/08/22 10:13:42;;;;;;;6.1;3.3;;;;;;;24.9;100;98795.52;;;;
2021/08/22 10:23:43;;;;;;;5.4;3.4;;;;;;;25.12;100;98796.25;;;;
2021/08/22 10:33:44;;;;;;;5.8;3.3;;;;;;;25.48;92.68262;98789.39;;;;
2021/08/22 10:43:48;;;;;;;4.9;2.6;;;;;;;25.39;79.38574;98783.53;;;;
2021/08/22 10:53:47;;;;;;;4.5;3.5;;;;;;;25.99;85.05762;98781.25;;;;
2021/08/22 11:04:08;;;;;;;5.8;3.1;;;;;;;26.06;84.66113;98779.63;;;;
2021/08/22 11:14:02;;;;;;;3.8;1.9;;;;;;;25.89;84.61816;98789.61;;;;
2021/08/22 11:24:04;;;;;;;6.1;3;;;;;;;25.61;76.78711;98787.8;;;;
2021/08/22 11:33:54;;;;;;;17.1;4.1;;;;;;;26.25;83.65918;98792.92;;;;
2021/08/22 11:44:00;;;;;;;5.5;2.5;;;;;;;25.83;71.14355;98783.71;;;;
2021/08/22 11:53:51;;;;;;;4.7;2.7;;;;;;;26.31;69.41406;98783.02;;;;
2021/08/22 12:04:06;;;;;;;4;2.1;;;;;;;25.79;71.27734;98766.38;;;;
2021/08/22 12:13:54;;;;;;;4.8;3;;;;;;;26.65;80.82324;98772.84;;;;
2021/08/22 12:23:55;;;;;;;5.5;3.4;;;;;;;27.14;73.6377;98763.25;;;;
2021/08/22 12:33:56;;;;;;;4.6;3.1;;;;;;;27.39;61.12402;98755.4;;;;
2021/08/22 12:43:57;;;;;;;5.7;2.4;;;;;;;27.64;61.62891;98738.48;;;;
2021/08/22 12:53:58;;;;;;;4.6;3;;;;;;;27.27;57.31348;98730.27;;;;
2021/08/22 13:03:59;;;;;;;5.3;2.8;;;;;;;27.46;63.36914;98715.79;;;;
2021/08/22 13:14:00;;;;;;;6;2.7;;;;;;;27.95;58.19141;98712.28;;;;
2021/08/22 13:24:02;;;;;;;6.4;2.5;;;;;;;28.18;57.61719;98716.31;;;;
2021/08/22 13:34:05;;;;;;;6.5;4.2;;;;;;;27.82;59.70801;98705.77;;;;
2021/08/22 13:44:04;;;;;;;6.6;3.4;;;;;;;28.28;58.08984;98704.25;;;;
2021/08/22 13:54:05;;;;;;;4.5;2.6;;;;;;;28.52;57.16406;98696.69;;;;
2021/08/22 14:04:07;;;;;;;5.4;2.9;;;;;;;28.2;65.97168;98686.96;;;;
2021/08/22 14:14:08;;;;;;;4.3;2.1;;;;;;;27.92;67.4502;98677.11;;;;
2021/08/22 14:24:09;;;;;;;4.1;2.5;;;;;;;27.58;61.77344;98659.86;;;;
2021/08/22 14:34:17;;;;;;;4.6;2.6;;;;;;;27.83;61.24023;98646.41;;;;
2021/08/22 14:44:12;;;;;;;6.6;3.2;;;;;;;28.71;57.18848;98638.48;;;;
2021/08/22 14:54:13;;;;;;;6.1;4.5;;;;;;;28.81;59.93164;98637.48;;;;
2021/08/22 15:04:14;;;;;;;8.1;4;;;;;;;28.93;59.9834;98634.06;;;;
2021/08/22 15:14:16;;;;;;;4.4;2.2;;;;;;;29.29;60.83496;98622.21;;;;
2021/08/22 15:24:20;;;;;;;4.1;2.4;;;;;;;31.05;54.06934;98627.15;;;;
2021/08/22 15:34:19;;;;;;;5;2.9;;;;;;;28.6;60.76563;98614.93;;;;
2021/08/22 15:44:20;;;;;;;4.3;2.4;;;;;;;27.07;75.08984;98605.63;;;;
2021/08/22 15:54:21;;;;;;;5.6;3.8;;;;;;;26.68;75.72852;98597.81;;;;
2021/08/22 16:04:22;;;;;;;9.2;5.1;;;;;;;25.81;87.36328;98592.81;;;;
2021/08/22 16:14:23;;;;;;;7;4;;;;;;;25.03;95.14355;98592.56;;;;
2021/08/22 16:24:24;;;;;;;7.7;4.3;;;;;;;24.97;87.73633;98580.41;;;;
2021/08/22 16:34:25;;;;;;;6.6;3.3;;;;;;;24.68;94.20117;98576.97;;;;
2021/08/22 16:44:26;;;;;;;5.6;4.1;;;;;;;24.39;100;98578.3;;;;
2021/08/22 16:54:27;;;;;;;4.2;2.8;;;;;;;23.87;100;98575.25;;;;
2021/08/22 17:04:28;;;;;;;14.7;8.6;;;;;;;23.77;100;98573.3;;;;
2021/08/22 17:14:29;;;;;;;8.4;5.1;;;;;;;23.43;100;98581.16;;;;
2021/08/22 17:24:29;;;;;;;6.9;4.3;;;;;;;23.1;100;98587;;;;
2021/08/22 17:34:29;;;;;;;6.4;3.6;;;;;;;22.83;100;98586.55;;;;
2021/08/22 17:44:30;;;;;;;7.6;5.6;;;;;;;22.58;100;98585.64;;;;
2021/08/22 17:54:30;;;;;;;9.2;5.3;;;;;;;22.23;100;98580.78;;;;
2021/08/22 18:04:31;;;;;;;8;4.7;;;;;;;22.05;100;98586.17;;;;
2021/08/22 18:14:31;;;;;;;8.2;6;;;;;;;21.7;100;98580.41;;;;
2021/08/22 18:24:31;;;;;;;8.4;5.6;;;;;;;21.62;100;98587.03;;;;
2021/08/22 18:34:32;;;;;;;7.6;4.8;;;;;;;21.48;100;98582.22;;;;
2021/08/22 18:44:32;;;;;;;6.4;4.6;;;;;;;21.33;100;98596.97;;;;
2021/08/22 18:54:32;;;;;;;13.4;9.1;;;;;;;21.27;100;98601.22;;;;
2021/08/22 19:04:32;;;;;;;6.8;5.1;;;;;;;21.15;100;98604.23;;;;
2021/08/22 19:14:33;;;;;;;9.4;5.1;;;;;;;21;100;98608.73;;;;
2021/08/22 19:24:32;;;;;;;14.8;9;;;;;;;20.85;100;98601.55;;;;
2021/08/22 19:34:32;;;;;;;8.1;6.1;;;;;;;20.79;100;98602.27;;;;
2021/08/22 19:44:32;;;;;;;6.6;4.6;;;;;;;20.7;100;98591.58;;;;
2021/08/22 19:54:33;;;;;;;12.7;6.5;;;;;;;20.67;100;98597.81;;;;
2021/08/22 20:04:33;;;;;;;7.9;4.3;;;;;;;20.58;100;98592.61;;;;
2021/08/22 20:14:33;;;;;;;7.3;4.3;;;;;;;20.53;100;98590.22;;;;
2021/08/22 20:24:35;;;;;;;11.4;7.6;;;;;;;20.52;100;98576.89;;;;
2021/08/22 20:34:33;;;;;;;7.8;5.5;;;;;;;20.46;100;98575.65;;;;
2021/08/22 20:44:33;;;;;;;7.4;5.1;;;;;;;20.3;100;98561.38;;;;
2021/08/22 20:54:33;;;;;;;7.6;5.1;;;;;;;20.25;100;98567.13;;;;
2021/08/22 21:04:33;;;;;;;7.4;4.4;;;;;;;20.26;100;98574.19;;;;
2021/08/22 21:14:33;;;;;;;6.4;5.4;;;;;;;20.19;100;98555.73;;;;
2021/08/22 21:24:33;;;;;;;9.1;5.8;;;;;;;20.17;100;98558.04;;;;
2021/08/22 21:34:33;;;;;;;12.4;7.6;;;;;;;20.05;100;98561.02;;;;
2021/08/22 21:44:33;;;;;;;7.2;5.6;;;;;;;19.89;100;98554.91;;;;
2021/08/22 21:54:34;;;;;;;6.5;5;;;;;;;19.83;100;98559.92;;;;
2021/08/22 22:04:33;;;;;;;7.9;4.2;;;;;;;19.78;100;98567.66;;;;
2021/08/22 22:14:33;;;;;;;10.1;8.1;;;;;;;19.56;100;98608.34;;;;
2021/08/22 22:24:33;;;;;;;12.7;7.3;;;;;;;19.23;100;98580.8;;;;
2021/08/22 22:34:33;;;;;;;14.1;7.2;;;;;;;18.85;100;98572.69;;;;
2021/08/22 22:44:33;;;;;;;8.2;6.2;;;;;;;18.74;100;98558.08;;;;
2021/08/22 22:54:35;;;;;;;7;5.2;;;;;;;18.62;100;98553.55;;;;
2021/08/22 23:04:33;;;;;;;7.9;6.2;;;;;;;18.53;100;98544.81;;;;
2021/08/22 23:14:33;;;;;;;7.2;5.1;;;;;;;18.42;100;98541.05;;;;
2021/08/22 23:24:33;;;;;;;6.9;4.2;;;;;;;18.5;100;98540.05;;;;
2021/08/22 23:34:33;;;;;;;7.9;5.9;;;;;;;18.4;100;98556.97;;;;
2021/08/22 23:44:33;;;;;;;10.6;5;;;;;;;18.31;100;98559.14;;;;
2021/08/22 23:54:33;;;;;;;11.5;6;;;;;;;18.23;100;98541.03;;;;
